Harsens Island, Michigan
Current Conditions -  °F | °C
As of 9:58 PM on Sunday 23 Nov 2014 (Local Time) from KMTC Reporting Station
Moderate Rain Moderate Rain  
Wind Chill: 42°   Ceiling: 2400
Heat Index: 48°   Visibility: 4mi
Dew Point: 48°   Wind: 18mph
Humidity: 100%   Direction: 110°ESE
Pressure: 29.4"   Gusts: 23mph
Location:  42.6°N, 82.59°W
Report Text: KMTC 240258Z AUTO 11016G20KT 4SM R19/4500FT RA BR OVC024 09/09 A2940 RMK AO2 CIG 024V034 PRESFR SLP961 P0018 60021 T00910091 57059
Loading
Personal Weather Stations






























Interactive Weather Map New forecast layout! Learn more

10-Day Weather Forecast

Advertisements
Track Severe Weather on mobile